Report METAR

 

LIPX - Villafranca(Cv/M, Italy
Distanza dalla stazione: S 60km
Dati ricevuti: Fri, 03/04/2020 11:20
Sereno
Sereno
 Vento da Variabile
Vento: Variabile 6 km/h
Temperatura: 12°C
Punto Rugiada: 0°C
Umidità: 44%
Barometro: 1015 hPa
Nuvole: Sereno
VisibilitÓ: 10 km
2020/04/03 09:20 LIPX 030920Z AUTO VRB03KT 9999 NCD 12/M00 Q1015
LIPB - Bolzano(Civ/It-A, Italy
Distanza dalla stazione: NNE 68km
Dati ricevuti: Fri, 03/04/2020 10:50
Sereno
Sereno
 Vento da Variabile
Vento: Variabile 4 km/h
Temperatura: 10°C
Punto Rugiada: -1°C
Umidità: 47%
Barometro: 1014 hPa
Sommario: Sereno
VisibilitÓ: superiore a 10 km
2020/04/03 08:50 LIPB 030850Z VRB02KT CAVOK 10/M01 Q1014
 
LIPO - Brescia/Montichi, Italy
Distanza dalla stazione: SO 71km
Dati ricevuti: Fri, 03/04/2020 01:50
DATI Obsoleti
Sereno
Sereno
 Vento da NNE
Vento: NNE 9 km/h
Temperatura: 4°C
Temperatura Vento: 2°C
Punto Rugiada: -1°C
Umidità: 70%
Barometro: 1012 hPa
Sommario: Sereno
VisibilitÓ: superiore a 10 km
2020/04/02 23:50 LIPO 022350Z 02005KT CAVOK 04/M01 Q1012
LIPL - Ghedi (it-Afb), Italy
Distanza dalla stazione: SO 75km
Dati ricevuti: Fri, 03/04/2020 10:55
Parz. nuvoloso
Parz. nuvoloso
 Vento da SSE
Vento: SSE 6 km/h
Temperatura: 11°C
Punto Rugiada: 5°C
Umidità: 67%
Barometro: 1014 hPa
Nuvole: Parz. nuvoloso
VisibilitÓ: 8 km
2020/04/03 08:55 LIPL 030855Z 16003KT 8000 NSC 11/05 Q1014 RMK SKC VIS MIN 8000 WIND THR31 15003KT WIND THR13 17003KT BLU
 
LIVR - Rolle Pass, Italy
Distanza dalla stazione: ENE 78km
Dati ricevuti: Fri, 03/04/2020 10:55
Sereno
Sereno
 Vento da NE
Vento: NE 4 km/h
Temperatura: -1°C
Punto Rugiada: -9°C
Umidità: 55%
Barometro: 1006 hPa
Sommario: Sereno
VisibilitÓ: superiore a 10 km
2020/04/03 08:55 LIVR 030855Z 04002KT CAVOK M01/M09 Q1006 RMK SKC MON LIB VIS MIN 9999
LIPS - Istrana (it-Afb), Italy
Distanza dalla stazione: ESE 96km
Dati ricevuti: Fri, 03/04/2020 10:55
Parz. nuvoloso
Parz. nuvoloso
 Vento da Variabile
Vento: Variabile 0 km/h
Temperatura: 12°C
Punto Rugiada: 5°C
Umidità: 63%
Barometro: 1014 hPa
Nuvole: Parz. nuvoloso
VisibilitÓ: 9 km
2020/04/03 08:55 LIPS 030855Z /////KT 9000 NSC 12/05 Q1014 RMK SKC VIS MIN 9000 WIND THR26 03002KT WIND THR08 11002KT BLU
 
LIME - Bergamo/Orio Ser, Italy
Distanza dalla stazione: OSO 99km
Dati ricevuti: Fri, 03/04/2020 11:20
Sereno
Sereno
 Vento da SSO
Vento: SSO 7 km/h
Temperatura: 11°C
Punto Rugiada: 0°C
Umidità: 47%
Barometro: 1014 hPa
Sommario: Sereno
VisibilitÓ: superiore a 10 km
2020/04/03 09:20 LIME 030920Z 20004KT 150V250 CAVOK 11/00 Q1014 NOSIG
LIPH - Treviso(Civ/It-A, Italy
Distanza dalla stazione: ESE 103km
Dati ricevuti: Fri, 03/04/2020 11:20
Sereno
Sereno
 Vento da Variabile
Vento: Variabile 2 km/h
Temperatura: 12°C
Punto Rugiada: 0°C
Umidità: 44%
Barometro: 1015 hPa
Sommario: Sereno
VisibilitÓ: superiore a 10 km
2020/04/03 09:20 LIPH 030920Z VRB01KT CAVOK 12/00 Q1015
 
LSZS - Samedan, Switzerland
Distanza dalla stazione: NO 104km
Dati ricevuti: Fri, 03/04/2020 11:20
Poche nubi
Poche nubi
 Vento da ESE
Vento: ESE 9 km/h
Temperatura: 2°C
Temperatura Vento: -1°C
Punto Rugiada: -9°C
Umidità: 44%
Barometro: 1012 hPa
Nuvole: Poche nubi
VisibilitÓ: 10 km
Dettaglio nuvole: Poche nubi 1524 m
2020/04/03 09:20 LSZS 030920Z AUTO 11005KT 060V160 9999 FEW050 02/M09 Q1012
LIVE - Resia Pass, Italy
Distanza dalla stazione: NNO 108km
Dati ricevuti: Fri, 03/04/2020 10:55
Sereno
Sereno
 Vento da N
Vento: N 9 km/h
Temperatura: 4°C
Temperatura Vento: 2°C
Punto Rugiada: -4°C
Umidità: 56%
Barometro: 1010 hPa
Sommario: Sereno
VisibilitÓ: superiore a 10 km
2020/04/03 08:55 LIVE 030855Z 36005KT CAVOK 04/M04 Q1010 RMK SKC VIS MIN 9999
 
LIPZ - Venezia/Tessera, Italy
Distanza dalla stazione: ESE 122km
Dati ricevuti: Fri, 03/04/2020 11:20
Sereno
Sereno
 Vento da SE
Vento: SE 7 km/h
Temperatura: 10°C
Temperatura Vento: 9°C
Punto Rugiada: 3°C
Umidità: 62%
Barometro: 1015 hPa
Sommario: Sereno
VisibilitÓ: superiore a 10 km
2020/04/03 09:20 LIPZ 030920Z 14004KT 100V180 CAVOK 10/03 Q1015 NOSIG
LIMP - Parma, Italy
Distanza dalla stazione: SSO 132km
Dati ricevuti: Fri, 03/04/2020 10:50
Sereno
Sereno
 Vento da Variabile
Vento: Variabile 4 km/h
Temperatura: 11°C
Punto Rugiada: 8°C
Umidità: 82%
Barometro: 1015 hPa
Sommario: Sereno
VisibilitÓ: superiore a 10 km
2020/04/03 08:50 LIMP 030850Z VRB02KT CAVOK 11/08 Q1015
 
LIVD - Dobbiaco, Italy
Distanza dalla stazione: NE 134km
Dati ricevuti: Fri, 03/04/2020 10:55
Poche nubi
Poche nubi
 Vento da Variabile
Vento: Variabile 0 km/h
Temperatura: 5°C
Punto Rugiada: -5°C
Umidità: 49%
Barometro: 1014 hPa
Nuvole: Poche nubi
VisibilitÓ: 10 km
Dettaglio nuvole: Poche nubi 914 m
2020/04/03 08:55 LIVD 030855Z /////KT 9999 FEW030 05/M05 Q1014 RMK FEW VIS MIN 9999
LIPF - Ferrara (aut), Italy
Distanza dalla stazione: SSE 135km
Dati ricevuti: Fri, 03/04/2020 10:55
Sereno
Sereno
 Vento da Variabile
Vento: Variabile 0 km/h
Temperatura: 11°C
Punto Rugiada: 5°C
Umidità: 67%
Barometro: 1015 hPa
Sommario: Sereno
VisibilitÓ: superiore a 10 km
2020/04/03 08:55 LIPF 030855Z /////KT CAVOK 11/05 Q1015
 
LIML - Milano/Linate, Italy
Distanza dalla stazione: OSO 137km
Dati ricevuti: Fri, 03/04/2020 11:20
Sereno
Sereno
 Vento da SSE
Vento: SSE 6 km/h
Temperatura: 12°C
Punto Rugiada: 0°C
Umidità: 44%
Barometro: 1015 hPa
Sommario: Sereno
VisibilitÓ: superiore a 10 km
2020/04/03 09:20 LIML 030920Z 16003KT 080V200 CAVOK 12/00 Q1015 NOSIG
LIMS - Piacenza (it-Afb, Italy
Distanza dalla stazione: SO 145km
Dati ricevuti: Fri, 03/04/2020 10:55
Sereno
Sereno
 Vento da NE
Vento: NE 4 km/h
Temperatura: 11°C
Punto Rugiada: 1°C
Umidità: 50%
Barometro: 1014 hPa
Sommario: Sereno
VisibilitÓ: superiore a 10 km
2020/04/03 08:55 LIMS 030855Z 05002KT CAVOK 11/01 Q1014